Time;durP1;ratioP1;P1;durP2;ratioP2;P2;SDS_P1;SDS_P2;PMS_P1;PMS_P2;Temp;Humidity;BMP_temperature;BMP_pressure;BME280_temperature;BME280_humidity;BME280_pressure;Samples;Min_cycle;Max_cycle;Signal;HPM_P1;HPM_P2
2023/02/10 00:01:28;;;;;;;81.43;33.28;;;;;;;11.72;87.16;103373.81;5079801;28;20036;-49
2023/02/10 00:03:55;;;;;;;78.65;29.33;;;;;;;11.66;88.55;103369.00;5099405;28;20025;-52
2023/02/10 00:06:26;;;;;;;80.93;30.98;;;;;;;11.53;89.49;103382.66;5104713;28;20061;-48
2023/02/10 00:08:54;;;;;;;65.10;27.98;;;;;;;11.63;89.92;103380.00;5098421;28;20032;-51
2023/02/10 00:11:55;;;;;;;77.75;30.10;;;;;;;12.10;86.28;103373.94;5077935;28;20063;-48
2023/02/10 00:14:06;;;;;;;73.30;30.05;;;;;;;11.49;89.76;103383.94;5097242;28;20037;-51
2023/02/10 00:16:32;;;;;;;78.60;29.77;;;;;;;11.69;87.90;103383.94;5099372;28;20045;-48
2023/02/10 00:18:57;;;;;;;79.50;30.13;;;;;;;11.21;91.22;103381.06;5098437;28;20036;-52
2023/02/10 00:21:23;;;;;;;81.47;29.77;;;;;;;11.58;88.62;103388.47;5102464;28;20062;-52
2023/02/10 00:23:48;;;;;;;70.53;28.43;;;;;;;11.66;87.96;103389.59;5100805;28;20291;-51
2023/02/10 00:26:14;;;;;;;73.60;30.27;;;;;;;11.94;85.36;103384.38;5097985;28;20060;-51
2023/02/10 00:28:42;;;;;;;72.88;28.25;;;;;;;11.91;85.38;103383.66;5097078;28;20035;-54
2023/02/10 00:31:12;;;;;;;77.97;30.17;;;;;;;11.47;86.82;103385.91;5082393;28;20044;-49
2023/02/10 00:33:38;;;;;;;63.13;29.15;;;;;;;11.15;89.41;103397.69;5103052;28;20051;-47
2023/02/10 00:36:05;;;;;;;69.35;26.63;;;;;;;11.28;89.33;103387.56;5099578;28;20066;-50
2023/02/10 00:38:30;;;;;;;68.88;29.48;;;;;;;11.25;91.89;103387.00;5097415;28;20060;-54
2023/02/10 00:41:04;;;;;;;69.00;29.30;;;;;;;11.67;87.40;103388.59;5098535;28;20053;-52
2023/02/10 00:43:30;;;;;;;71.85;30.77;;;;;;;11.20;92.32;103395.44;5079557;28;20066;-48
2023/02/10 00:45:55;;;;;;;71.97;31.60;;;;;;;11.31;91.67;103387.31;5096523;28;20037;-49
2023/02/10 00:48:21;;;;;;;72.20;29.27;;;;;;;11.71;88.16;103396.25;5079647;28;20277;-48
2023/02/10 00:50:46;;;;;;;71.27;30.53;;;;;;;11.55;88.09;103394.13;5100216;28;20064;-49
2023/02/10 00:53:12;;;;;;;67.25;28.80;;;;;;;10.90;91.56;103389.97;5081079;28;20032;-52
2023/02/10 00:55:37;;;;;;;71.37;28.97;;;;;;;10.94;90.23;103397.72;5100232;28;20088;-52
2023/02/10 00:58:03;;;;;;;69.23;28.17;;;;;;;11.75;86.81;103394.97;5100254;28;20059;-49
2023/02/10 01:00:28;;;;;;;64.57;27.53;;;;;;;11.47;87.49;103396.63;5080864;28;20058;-50
2023/02/10 01:02:54;;;;;;;67.00;28.37;;;;;;;11.46;87.42;103401.16;5098080;28;20332;-50
2023/02/10 01:05:19;;;;;;;66.27;26.50;;;;;;;11.64;86.42;103402.28;5102296;28;20040;-50
2023/02/10 01:07:44;;;;;;;68.47;26.90;;;;;;;11.49;87.82;103400.00;5081436;28;20029;-52
2023/02/10 01:10:10;;;;;;;68.67;27.07;;;;;;;10.98;88.58;103402.69;5081268;28;20039;-53
2023/02/10 01:12:35;;;;;;;65.50;26.50;;;;;;;11.17;90.52;103407.25;5096512;28;20036;-48
2023/02/10 01:15:01;;;;;;;60.80;26.08;;;;;;;11.03;90.26;103413.84;5078947;28;20043;-50
2023/02/10 01:17:26;;;;;;;71.27;26.50;;;;;;;11.87;85.15;103401.03;5092872;28;20044;-55
2023/02/10 01:19:52;;;;;;;73.10;26.90;;;;;;;11.58;84.98;103409.06;5097263;28;20260;-51
2023/02/10 01:22:17;;;;;;;58.27;25.17;;;;;;;11.56;86.89;103409.22;5061619;28;20028;-52
2023/02/10 01:24:43;;;;;;;66.77;25.97;;;;;;;11.53;86.78;103406.78;5097956;28;20028;-52
2023/02/10 01:27:08;;;;;;;68.10;25.42;;;;;;;11.53;87.49;103411.31;5105053;28;20260;-53
2023/02/10 01:29:34;;;;;;;61.10;26.13;;;;;;;12.23;82.89;103413.88;5081123;28;20044;-49
2023/02/10 01:31:59;;;;;;;58.53;26.55;;;;;;;10.85;89.51;103419.00;5101402;28;20122;-50
2023/02/10 01:34:26;;;;;;;55.70;24.87;;;;;;;11.23;89.51;103403.19;5070970;28;20045;-47
2023/02/10 01:36:52;;;;;;;61.50;26.70;;;;;;;11.77;85.36;103402.88;5055276;28;20036;-51
2023/02/10 01:39:17;;;;;;;64.60;25.60;;;;;;;11.54;85.90;103403.13;5057559;28;20034;-49
2023/02/10 01:41:43;;;;;;;62.67;26.50;;;;;;;10.95;86.56;103411.00;5061021;28;20350;-49
2023/02/10 01:44:20;;;;;;;64.00;25.52;;;;;;;11.51;86.01;103408.75;5062745;28;20037;-49
2023/02/10 01:46:47;;;;;;;60.35;25.92;;;;;;;11.84;83.40;103405.81;5058703;28;20032;-49
2023/02/10 01:49:17;;;;;;;64.65;26.73;;;;;;;11.27;87.28;103391.22;5062768;28;20032;-49
2023/02/10 01:51:50;;;;;;;59.78;24.90;;;;;;;11.22;85.81;103401.50;5062972;28;20037;-48
2023/02/10 01:54:24;;;;;;;57.50;23.90;;;;;;;11.80;82.91;103399.06;5066268;28;20025;-51
2023/02/10 01:56:52;;;;;;;56.95;25.27;;;;;;;11.60;83.53;103396.34;5053349;28;20037;-48
2023/02/10 01:59:19;;;;;;;54.60;22.63;;;;;;;11.74;83.14;103397.78;5062904;28;20085;-51
2023/02/10 02:01:46;;;;;;;56.78;24.50;;;;;;;11.14;85.51;103406.69;5057488;28;20033;-51
2023/02/10 02:04:11;;;;;;;62.08;25.73;;;;;;;11.06;88.57;103415.41;5059451;28;20068;-51
2023/02/10 02:06:38;;;;;;;57.15;25.17;;;;;;;11.25;87.00;103406.59;5063776;28;20026;-49
2023/02/10 02:09:04;;;;;;;;;;;;;;;11.00;92.20;103418.63;5058562;28;20033;-49
2023/02/10 02:11:43;;;;;;;63.10;25.63;;;;;;;11.09;88.02;103420.50;5057899;28;19927;-48
2023/02/10 02:14:27;;;;;;;65.15;27.95;;;;;;;11.33;88.04;103414.81;5059718;28;20072;-50
2023/02/10 02:17:07;;;;;;;78.32;29.55;;;;;;;10.96;90.57;103426.09;5061351;28;20037;-53
2023/02/10 02:20:39;;;;;;;67.78;27.42;;;;;;;11.31;88.26;103430.16;5057836;28;20060;-51
2023/02/10 02:23:02;;;;;;;68.95;26.92;;;;;;;11.11;90.57;103425.72;5062247;28;20037;-50
2023/02/10 02:26:02;;;;;;;61.38;25.50;;;;;;;10.84;91.51;103427.13;5061424;28;20033;-52
2023/02/10 02:29:06;;;;;;;67.70;28.40;;;;;;;11.22;89.92;103430.97;5059128;28;20032;-51
2023/02/10 02:31:48;;;;;;;65.15;26.40;;;;;;;11.15;90.56;103432.50;5060248;28;20017;-53
2023/02/10 02:34:27;;;;;;;70.50;28.55;;;;;;;11.40;88.08;103419.59;5061898;28;20083;-47
2023/02/10 02:36:58;;;;;;;68.90;28.73;;;;;;;10.84;91.05;103422.66;5057961;28;20044;-48
2023/02/10 02:39:26;;;;;;;61.80;25.55;;;;;;;11.19;89.43;103420.53;5065301;28;20029;-52
2023/02/10 02:42:13;;;;;;;74.50;29.60;;;;;;;11.28;87.59;103421.53;5064641;28;20036;-51
2023/02/10 02:44:39;;;;;;;65.63;28.10;;;;;;;11.29;88.43;103410.69;5063064;28;20067;-52
2023/02/10 02:47:23;;;;;;;69.50;28.70;;;;;;;11.16;88.61;103415.44;5065728;28;20037;-50
2023/02/10 02:50:16;;;;;;;70.15;28.77;;;;;;;10.97;90.10;103414.38;5059174;28;20030;-52
2023/02/10 02:53:03;;;;;;;72.32;27.50;;;;;;;11.10;89.94;103413.31;5060467;28;20046;-51
2023/02/10 02:55:38;;;;;;;;;;;;;;;10.96;90.76;103423.41;5056703;28;20029;-47
2023/02/10 02:58:15;;;;;;;67.50;26.42;;;;;;;10.99;88.66;103422.31;5056084;28;20176;-49
2023/02/10 03:00:43;;;;;;;62.65;27.40;;;;;;;10.56;92.06;103429.53;5064779;28;20110;-51
2023/02/10 03:03:10;;;;;;;65.72;27.63;;;;;;;10.70;91.26;103429.19;5067071;28;20077;-51
2023/02/10 03:05:36;;;;;;;69.25;29.27;;;;;;;10.47;94.48;103433.84;5058487;28;20091;-47
2023/02/10 03:08:02;;;;;;;68.57;29.00;;;;;;;10.99;89.74;103435.69;5064017;28;20036;-51
2023/02/10 03:10:27;;;;;;;66.67;28.47;;;;;;;11.14;89.04;103433.50;5059954;28;20041;-49
2023/02/10 03:12:53;;;;;;;80.40;28.97;;;;;;;10.90;90.56;103435.50;5061678;28;20263;-47
2023/02/10 03:15:19;;;;;;;73.63;26.85;;;;;;;10.38;91.35;103437.28;5058487;28;20051;-53
2023/02/10 03:17:45;;;;;;;65.05;26.90;;;;;;;10.51;92.79;103431.75;5061958;28;20069;-49
2023/02/10 03:20:10;;;;;;;48.00;20.23;;;;;;;10.95;90.06;103432.41;5061051;28;20048;-49
2023/02/10 03:22:36;;;;;;;64.95;25.50;;;;;;;10.61;90.03;103438.03;5058705;28;20067;-49
2023/02/10 03:25:02;;;;;;;62.40;26.58;;;;;;;10.82;87.90;103434.47;5055858;28;20029;-52
2023/02/10 03:27:27;;;;;;;68.80;26.83;;;;;;;10.02;92.00;103437.56;5063504;28;20048;-53
2023/02/10 03:29:53;;;;;;;70.03;27.97;;;;;;;10.23;93.34;103434.06;5057914;28;20281;-54
2023/02/10 03:32:19;;;;;;;59.15;26.15;;;;;;;10.52;90.18;103439.66;5063756;28;20025;-52
2023/02/10 03:34:45;;;;;;;63.55;26.85;;;;;;;10.59;90.06;103434.63;5100945;28;20067;-49
2023/02/10 03:37:11;;;;;;;52.67;20.85;;;;;;;10.22;91.46;103437.72;5104223;28;20062;-49
2023/02/10 03:39:37;;;;;;;68.22;26.40;;;;;;;10.36;90.85;103433.88;5102590;28;20032;-52
2023/02/10 03:42:03;;;;;;;81.07;27.08;;;;;;;9.98;93.52;103436.97;5100756;28;20032;-53
2023/02/10 03:44:29;;;;;;;66.30;29.13;;;;;;;10.61;89.98;103440.72;5104831;28;20032;-48
2023/02/10 03:46:55;;;;;;;76.00;26.93;;;;;;;10.46;89.07;103446.38;5101142;28;20032;-50
2023/02/10 03:49:21;;;;;;;66.17;25.37;;;;;;;10.46;88.83;103445.53;5102382;28;20225;-52
2023/02/10 03:51:46;;;;;;;71.33;28.27;;;;;;;9.98;92.51;103444.16;5099958;28;20040;-50
2023/02/10 03:54:11;;;;;;;70.60;27.97;;;;;;;10.68;90.24;103441.00;5084767;28;20040;-51
2023/02/10 03:56:37;;;;;;;70.82;29.27;;;;;;;9.85;96.43;103442.47;5104700;28;20396;-53
2023/02/10 03:59:04;;;;;;;84.23;30.40;;;;;;;9.62;97.15;103431.03;5100482;28;20029;-52
2023/02/10 04:01:30;;;;;;;80.43;29.70;;;;;;;9.82;96.75;103436.56;5103659;28;20050;-49
2023/02/10 04:03:56;;;;;;;83.43;30.83;;;;;;;9.96;96.52;103440.75;5104329;28;20031;-51
2023/02/10 04:06:22;;;;;;;74.27;30.97;;;;;;;9.94;96.60;103442.72;5103131;28;20059;-47
2023/02/10 04:08:48;;;;;;;77.95;31.30;;;;;;;10.41;93.49;103445.06;5102564;28;20028;-50
2023/02/10 04:11:15;;;;;;;82.00;30.25;;;;;;;9.72;97.11;103442.63;5099412;28;20039;-49
2023/02/10 04:13:41;;;;;;;80.45;31.63;;;;;;;10.27;96.75;103440.84;5102999;28;20095;-50
2023/02/10 04:16:09;;;;;;;75.75;30.83;;;;;;;10.07;94.44;103446.03;5101184;28;20063;-48
2023/02/10 04:18:35;;;;;;;75.53;30.40;;;;;;;9.48;100.00;103440.16;5095270;28;20036;-49
2023/02/10 04:21:03;;;;;;;75.82;30.13;;;;;;;10.26;95.74;103441.84;5097153;28;20043;-50
2023/02/10 04:23:30;;;;;;;77.85;28.55;;;;;;;9.71;99.20;103440.13;5108117;28;20122;-53
2023/02/10 04:25:56;;;;;;;91.45;32.45;;;;;;;9.82;99.87;103437.38;5098203;28;20025;-52
2023/02/10 04:28:22;;;;;;;83.70;30.67;;;;;;;9.83;100.00;103440.94;5095914;28;20119;-49
2023/02/10 04:30:54;;;;;;;75.13;30.70;;;;;;;10.18;98.71;103443.34;5102303;28;20032;-49
2023/02/10 04:33:21;;;;;;;75.80;30.25;;;;;;;10.04;99.74;103441.81;5102224;28;20039;-51
2023/02/10 04:35:50;;;;;;;78.80;30.40;;;;;;;10.16;97.35;103445.28;5098566;28;20032;-50
2023/02/10 04:38:16;;;;;;;76.18;31.48;;;;;;;10.07;98.77;103440.69;5100775;28;20060;-46
2023/02/10 04:40:42;;;;;;;80.95;31.67;;;;;;;10.46;95.82;103445.53;5106406;28;20110;-52
2023/02/10 04:43:10;;;;;;;77.03;30.95;;;;;;;10.32;95.92;103444.00;5095391;28;20037;-51
2023/02/10 04:45:35;;;;;;;;;;;;;;;10.50;95.13;103443.44;5097696;28;20047;-48
2023/02/10 04:48:01;;;;;;;81.07;33.53;;;;;;;10.52;96.19;103450.38;5099988;28;19951;-53
2023/02/10 04:50:26;;;;;;;78.10;31.07;;;;;;;10.54;95.07;103453.75;5097096;28;20069;-48
2023/02/10 04:52:52;;;;;;;77.10;30.83;;;;;;;10.33;94.84;103456.38;5099121;28;20115;-54
2023/02/10 04:55:17;;;;;;;86.93;31.77;;;;;;;9.96;95.15;103459.47;5099928;28;20293;-50
2023/02/10 04:57:43;;;;;;;83.23;31.70;;;;;;;10.58;92.45;103468.56;5100384;28;20027;-52
2023/02/10 05:00:09;;;;;;;82.87;30.70;;;;;;;10.38;92.56;103475.59;5101669;28;20341;-50
2023/02/10 05:02:35;;;;;;;85.40;30.75;;;;;;;10.80;91.00;103472.09;5099924;28;20032;-54
2023/02/10 05:05:00;;;;;;;71.50;28.85;;;;;;;11.10;86.91;103474.91;5096721;28;20100;-46
2023/02/10 05:07:26;;;;;;;78.15;29.33;;;;;;;10.95;87.49;103471.72;5098142;28;20061;-46
2023/02/10 05:09:52;;;;;;;76.00;29.73;;;;;;;10.29;91.65;103460.28;5099270;28;20028;-50
2023/02/10 05:12:17;;;;;;;80.83;31.63;;;;;;;10.12;93.15;103453.69;5106504;28;20032;-53
2023/02/10 05:14:43;;;;;;;81.20;30.43;;;;;;;10.26;94.10;103449.84;5100266;28;20273;-48
2023/02/10 05:17:08;;;;;;;71.43;30.00;;;;;;;10.02;96.48;103448.25;5095801;28;20032;-52
2023/02/10 05:19:34;;;;;;;88.60;31.15;;;;;;;10.37;94.47;103440.94;5084847;28;20048;-52
2023/02/10 05:21:59;;;;;;;71.70;31.90;;;;;;;9.29;100.00;103441.63;5094233;28;20103;-52
2023/02/10 05:24:25;;;;;;;89.87;32.63;;;;;;;10.01;98.76;103446.56;5097561;28;20337;-48
2023/02/10 05:26:50;;;;;;;78.43;30.33;;;;;;;9.49;99.07;103436.50;5097615;28;20031;-48
2023/02/10 05:29:16;;;;;;;87.33;31.13;;;;;;;10.17;96.83;103438.09;5100226;28;20033;-50
2023/02/10 05:31:41;;;;;;;76.50;28.90;;;;;;;9.47;100.00;103443.81;5103565;28;20091;-51
2023/02/10 05:34:06;;;;;;;90.23;30.13;;;;;;;9.06;100.00;103446.13;5091531;28;20063;-47
2023/02/10 05:36:32;;;;;;;64.30;25.40;;;;;;;9.57;100.00;103459.91;5102970;28;20032;-52
2023/02/10 05:41:42;;;;;;;85.85;32.38;;;;;;;9.69;100.00;103466.94;5097598;28;20299;-49
2023/02/10 05:44:08;;;;;;;84.03;33.97;;;;;;;9.96;100.00;103462.16;5098900;28;20023;-50
2023/02/10 05:46:33;;;;;;;97.20;35.30;;;;;;;10.11;97.34;103452.84;5097081;28;20280;-53
2023/02/10 05:48:59;;;;;;;88.53;34.30;;;;;;;10.46;94.24;103457.09;5106908;28;20047;-46
2023/02/10 05:51:24;;;;;;;91.23;34.67;;;;;;;10.07;98.67;103451.41;5097385;28;20281;-49
2023/02/10 05:53:50;;;;;;;94.03;33.78;;;;;;;10.33;96.65;103465.28;5098243;28;20040;-48
2023/02/10 05:56:16;;;;;;;89.20;36.03;;;;;;;9.94;99.77;103466.78;5098001;28;20048;-52
2023/02/10 05:58:41;;;;;;;90.60;33.75;;;;;;;10.17;99.05;103470.19;5097494;28;20098;-52
2023/02/10 06:01:08;;;;;;;91.70;34.77;;;;;;;10.69;92.95;103473.00;5098232;28;20091;-51
2023/02/10 06:03:34;;;;;;;87.30;31.27;;;;;;;10.42;95.02;103469.03;5099679;28;20035;-54
2023/02/10 06:06:00;;;;;;;101.25;36.40;;;;;;;10.35;96.18;103465.13;5095096;28;20029;-52
2023/02/10 06:08:26;;;;;;;93.97;37.40;;;;;;;10.16;98.81;103455.13;5099998;28;20032;-49
2023/02/10 06:10:52;;;;;;;99.40;36.73;;;;;;;9.94;100.00;103461.44;5101674;28;20360;-50
2023/02/10 06:13:17;;;;;;;95.07;38.45;;;;;;;10.13;99.79;103456.22;5096965;28;20044;-49
2023/02/10 06:15:43;;;;;;;91.65;36.20;;;;;;;9.57;100.00;103452.75;5096361;28;20071;-50
2023/02/10 06:18:08;;;;;;;91.30;37.30;;;;;;;9.23;100.00;103451.94;5098667;28;20111;-48
2023/02/10 06:20:34;;;;;;;102.87;38.43;;;;;;;8.89;100.00;103445.66;5099745;28;20043;-48
2023/02/10 06:22:59;;;;;;;103.27;37.70;;;;;;;9.12;100.00;103451.00;5102080;28;20377;-52
2023/02/10 06:25:25;;;;;;;66.47;28.33;;;;;;;9.56;100.00;103442.19;5098722;28;20032;-48
2023/02/10 06:27:50;;;;;;;97.77;37.10;;;;;;;9.77;100.00;103439.59;5098797;28;20326;-50
2023/02/10 06:30:16;;;;;;;87.55;30.77;;;;;;;9.22;100.00;103444.91;5101062;28;20039;-48
2023/02/10 06:32:42;;;;;;;108.70;36.15;;;;;;;9.48;100.00;103456.19;5101144;28;20042;-49
2023/02/10 06:35:08;;;;;;;110.53;37.50;;;;;;;9.63;100.00;103455.91;5101838;28;20063;-50
2023/02/10 06:37:33;;;;;;;90.53;33.70;;;;;;;9.86;100.00;103454.88;5094981;28;20027;-49
2023/02/10 06:39:58;;;;;;;112.37;41.83;;;;;;;9.94;100.00;103461.44;5104851;28;20040;-50
2023/02/10 06:42:24;;;;;;;105.90;41.15;;;;;;;9.98;100.00;103463.69;5100253;28;20036;-48
2023/02/10 06:44:50;;;;;;;113.13;37.83;;;;;;;9.54;100.00;103463.69;5101186;28;20055;-50
2023/02/10 06:47:15;;;;;;;104.00;37.97;;;;;;;10.26;100.00;103477.44;5105220;28;20084;-51
2023/02/10 06:49:41;;;;;;;98.43;36.60;;;;;;;10.14;99.95;103479.31;5100487;28;20273;-50
2023/02/10 06:52:06;;;;;;;101.13;30.90;;;;;;;10.27;99.31;103478.31;5098268;28;20024;-52
2023/02/10 06:54:31;;;;;;;111.40;41.07;;;;;;;10.55;96.86;103482.22;5081024;28;20044;-52
2023/02/10 06:56:57;;;;;;;114.38;40.17;;;;;;;10.27;99.83;103491.69;5100404;28;20055;-52
2023/02/10 06:59:23;;;;;;;116.07;42.73;;;;;;;10.02;100.00;103485.69;5096156;28;20040;-52
2023/02/10 07:01:48;;;;;;;103.53;38.30;;;;;;;9.64;100.00;103485.19;5095737;28;20261;-50
2023/02/10 07:04:14;;;;;;;109.50;39.93;;;;;;;10.34;99.09;103490.19;5104095;28;20028;-51
2023/02/10 07:06:39;;;;;;;100.28;38.15;;;;;;;10.19;99.03;103492.31;5103464;28;20060;-48
2023/02/10 07:09:05;;;;;;;112.23;40.37;;;;;;;10.75;94.12;103498.41;5103749;28;20040;-50
2023/02/10 07:11:32;;;;;;;106.07;38.65;;;;;;;11.01;92.27;103498.00;5098303;28;20043;-52
2023/02/10 07:13:58;;;;;;;125.63;43.30;;;;;;;10.83;93.43;103503.06;5099722;28;20095;-50
2023/02/10 07:16:24;;;;;;;149.27;44.30;;;;;;;10.24;95.01;103499.97;5101040;28;20047;-48
2023/02/10 07:18:50;;;;;;;284.90;51.67;;;;;;;10.28;94.19;103502.25;5104051;28;20033;-51
2023/02/10 07:21:15;;;;;;;173.13;38.97;;;;;;;10.14;95.81;103495.34;5099435;28;20273;-55
2023/02/10 07:23:40;;;;;;;128.53;43.87;;;;;;;10.22;94.62;103493.91;5105779;28;20032;-52
2023/02/10 07:26:06;;;;;;;117.33;42.60;;;;;;;10.16;96.39;103504.13;5097220;28;20028;-54
2023/02/10 07:28:33;;;;;;;;;;;;;;;9.71;98.67;103498.91;5098168;28;20036;-53
2023/02/10 07:30:58;;;;;;;105.13;37.43;;;;;;;9.49;99.12;103492.63;5102537;28;19974;-50
2023/02/10 07:33:24;;;;;;;111.18;41.80;;;;;;;9.94;98.26;103496.19;5101400;28;20062;-52
2023/02/10 07:35:50;;;;;;;107.10;36.77;;;;;;;9.54;99.11;103492.22;5102609;28;20103;-53
2023/02/10 07:38:16;;;;;;;110.37;38.43;;;;;;;9.97;96.58;103493.25;5098365;28;20284;-50
2023/02/10 07:40:42;;;;;;;109.47;39.00;;;;;;;9.29;100.00;103499.53;5098327;28;20082;-50
2023/02/10 07:43:08;;;;;;;107.13;39.20;;;;;;;9.64;99.27;103497.69;5100682;28;20032;-54
2023/02/10 07:45:42;;;;;;;114.05;39.17;;;;;;;9.76;99.55;103497.53;5078594;28;20056;-51
2023/02/10 07:48:07;;;;;;;122.67;37.40;;;;;;;9.08;100.00;103505.56;5098395;28;20039;-52
2023/02/10 07:50:33;;;;;;;97.43;32.17;;;;;;;10.04;97.96;103521.16;5101369;28;20041;-50
2023/02/10 07:52:58;;;;;;;79.27;30.17;;;;;;;10.85;90.71;103518.03;5094370;28;20097;-54
2023/02/10 07:55:24;;;;;;;105.47;36.17;;;;;;;9.89;93.52;103517.94;5100105;28;20287;-47
2023/02/10 07:57:51;;;;;;;102.27;37.80;;;;;;;9.90;96.57;103525.81;5102696;28;20099;-51
2023/02/10 08:00:16;;;;;;;106.05;37.33;;;;;;;9.90;99.24;103528.47;5094826;28;20033;-51
2023/02/10 08:02:42;;;;;;;90.13;28.43;;;;;;;9.68;97.42;103536.53;5101252;28;20036;-48
2023/02/10 08:05:08;;;;;;;104.13;36.20;;;;;;;9.57;96.77;103535.59;5098100;28;20312;-50
2023/02/10 08:07:34;;;;;;;113.13;36.75;;;;;;;10.91;91.47;103546.13;5100385;28;20044;-54
2023/02/10 08:09:59;;;;;;;108.40;36.53;;;;;;;10.45;90.74;103543.69;5096563;28;20060;-51
2023/02/10 08:12:25;;;;;;;90.18;35.90;;;;;;;10.68;90.24;103535.53;5100787;28;20036;-52
2023/02/10 08:14:50;;;;;;;100.20;36.93;;;;;;;10.07;95.31;103547.66;5100891;28;20054;-50
2023/02/10 08:17:16;;;;;;;102.43;34.33;;;;;;;10.27;93.46;103550.53;5095372;28;20054;-51
2023/02/10 08:19:41;;;;;;;103.70;36.40;;;;;;;10.46;94.38;103556.06;5105182;28;20053;-51
2023/02/10 08:22:06;;;;;;;111.47;36.87;;;;;;;10.21;92.99;103548.34;5100403;28;20071;-52
2023/02/10 08:24:32;;;;;;;78.97;29.08;;;;;;;10.30;93.03;103542.25;5097839;28;20051;-51
2023/02/10 08:26:58;;;;;;;102.50;34.97;;;;;;;10.25;93.36;103539.09;5099227;28;20032;-47
2023/02/10 08:29:23;;;;;;;94.87;35.03;;;;;;;10.19;95.05;103535.09;5080890;28;20056;-52
2023/02/10 08:31:50;;;;;;;92.70;31.40;;;;;;;10.08;94.83;103535.97;5101221;28;20272;-48
2023/02/10 08:34:17;;;;;;;121.13;42.65;;;;;;;9.87;95.65;103543.94;5063773;28;20061;-53
2023/02/10 08:36:43;;;;;;;109.70;37.90;;;;;;;10.21;94.89;103543.00;5057010;28;20029;-53
2023/02/10 08:39:09;;;;;;;98.70;38.53;;;;;;;10.22;95.44;103542.03;5058728;28;20085;-53
2023/02/10 08:41:35;;;;;;;116.88;40.92;;;;;;;9.82;97.96;103543.47;5055268;28;20663;-50
2023/02/10 08:44:01;;;;;;;119.05;40.42;;;;;;;9.57;100.00;103538.25;5060214;28;20045;-53
2023/02/10 08:46:26;;;;;;;131.27;41.92;;;;;;;9.54;100.00;103542.97;5054173;28;20043;-50
2023/02/10 08:48:52;;;;;;;115.97;42.77;;;;;;;9.70;100.00;103540.78;5057389;28;20092;-52
2023/02/10 08:51:17;;;;;;;118.30;44.90;;;;;;;10.00;98.53;103551.81;5056332;28;20033;-56
2023/02/10 08:53:43;;;;;;;118.07;39.53;;;;;;;9.92;99.19;103548.88;5061068;28;20044;-54
2023/02/10 08:56:12;;;;;;;110.28;37.55;;;;;;;9.77;100.00;103543.81;5062629;28;20052;-52
2023/02/10 08:58:38;;;;;;;114.00;38.17;;;;;;;10.20;99.17;103539.47;5059114;28;20030;-54
2023/02/10 09:01:33;;;;;;;131.05;39.95;;;;;;;10.09;99.63;103545.69;5057098;28;20064;-50
2023/02/10 09:03:58;;;;;;;127.80;40.10;;;;;;;10.22;99.63;103547.38;5050583;28;20118;-50
2023/02/10 09:06:28;;;;;;;119.13;41.47;;;;;;;9.49;100.00;103548.72;5055542;28;20037;-48
2023/02/10 09:08:53;;;;;;;114.50;40.38;;;;;;;10.14;100.00;103550.69;5055661;28;20052;-50
2023/02/10 09:11:23;;;;;;;120.38;41.38;;;;;;;10.24;100.00;103553.44;5055815;28;20037;-50
2023/02/10 09:13:50;;;;;;;130.48;43.00;;;;;;;11.14;98.48;103556.69;5059845;28;20029;-52
2023/02/10 09:16:15;;;;;;;111.90;39.15;;;;;;;11.23;98.23;103566.59;5055134;28;20072;-53
2023/02/10 09:18:41;;;;;;;107.77;38.63;;;;;;;11.24;95.59;103562.09;5062520;28;20025;-48
2023/02/10 09:21:06;;;;;;;96.83;34.60;;;;;;;10.59;100.00;103555.03;5056509;28;20270;-49
2023/02/10 09:23:32;;;;;;;87.27;31.93;;;;;;;10.73;97.83;103557.41;5054396;28;20029;-51
2023/02/10 09:25:59;;;;;;;87.63;31.43;;;;;;;11.11;96.96;103568.50;5055357;28;20036;-47
2023/02/10 09:28:26;;;;;;;93.28;31.48;;;;;;;11.28;96.48;103566.22;5056138;28;20278;-49
2023/02/10 09:30:52;;;;;;;;;;;;;;;11.18;94.40;103563.47;5055941;28;20044;-52
2023/02/10 09:33:18;;;;;;;84.97;31.00;;;;;;;12.21;91.67;103565.25;5068263;28;19920;-53
2023/02/10 09:35:44;;;;;;;74.38;29.23;;;;;;;12.40;90.60;103565.28;5098461;28;20108;-58
2023/02/10 09:38:12;;;;;;;83.90;27.98;;;;;;;12.05;91.24;103564.81;5093718;28;20056;-54
2023/02/10 09:40:49;;;;;;;88.63;30.48;;;;;;;12.84;85.25;103562.16;5095920;28;20043;-52
2023/02/10 09:43:25;;;;;;;81.85;28.40;;;;;;;12.65;88.20;103562.16;5095406;28;20043;-52
2023/02/10 09:46:13;;;;;;;72.25;28.10;;;;;;;13.25;85.80;103569.97;5099577;28;20024;-55
2023/02/10 09:49:15;;;;;;;83.45;28.55;;;;;;;14.44;80.65;103572.88;5095372;28;20095;-55
2023/02/10 09:52:02;;;;;;;62.00;25.05;;;;;;;16.36;77.63;103584.50;5036185;28;20042;-54
2023/02/10 09:54:32;;;;;;;59.75;25.08;;;;;;;17.10;71.65;103593.66;5094424;28;20025;-52
2023/02/10 09:57:08;;;;;;;56.33;23.02;;;;;;;15.64;72.73;103599.31;5099467;28;20044;-51
2023/02/10 09:59:37;;;;;;;54.13;22.67;;;;;;;16.66;70.47;103597.53;5095266;28;20053;-51
2023/02/10 10:02:21;;;;;;;56.08;24.63;;;;;;;16.63;70.42;103604.13;5096467;28;20045;-52
2023/02/10 10:04:46;;;;;;;53.33;22.85;;;;;;;17.10;69.61;103604.47;5100904;28;20066;-52
2023/02/10 10:07:28;;;;;;;53.37;23.03;;;;;;;17.86;66.98;103591.34;5090348;28;20134;-53
2023/02/10 10:10:02;;;;;;;51.07;22.40;;;;;;;18.41;64.45;103591.34;5091800;28;20261;-51
2023/02/10 10:12:28;;;;;;;56.37;23.37;;;;;;;19.69;61.28;103593.28;5096059;28;20279;-48
2023/02/10 10:14:54;;;;;;;51.72;22.42;;;;;;;18.23;60.14;103586.25;5097797;28;20277;-50
2023/02/10 10:17:46;;;;;;;49.65;22.27;;;;;;;17.85;61.82;103575.28;5098344;28;20029;-53
2023/02/10 10:20:29;;;;;;;48.67;19.83;;;;;;;18.74;60.08;103569.41;5093425;28;20024;-54
2023/02/10 10:23:04;;;;;;;51.40;22.13;;;;;;;19.08;60.51;103579.94;5093157;28;20758;-53
2023/02/10 10:25:54;;;;;;;57.67;25.03;;;;;;;19.91;57.91;103588.81;5096464;28;20274;-49
2023/02/10 10:28:19;;;;;;;49.37;21.97;;;;;;;20.13;54.98;103593.41;5098494;28;20273;-53
2023/02/10 10:31:05;;;;;;;51.07;21.97;;;;;;;19.42;57.43;103584.81;5094433;28;20267;-55
2023/02/10 10:33:50;;;;;;;50.97;21.77;;;;;;;20.83;55.43;103593.63;5092689;28;20045;-52
2023/02/10 10:36:20;;;;;;;54.63;22.40;;;;;;;20.49;54.94;103593.34;5092672;28;20288;-54
2023/02/10 10:38:53;;;;;;;48.87;21.70;;;;;;;21.30;53.72;103580.34;5101596;28;20307;-55
2023/02/10 10:41:25;;;;;;;46.93;21.50;;;;;;;21.50;52.04;103582.34;5101538;28;20284;-49
2023/02/10 10:43:53;;;;;;;54.20;21.80;;;;;;;21.27;51.93;103578.03;5101559;28;20273;-53
2023/02/10 10:46:30;;;;;;;54.73;22.10;;;;;;;20.17;52.36;103572.97;5101947;28;20273;-53
2023/02/10 10:48:55;;;;;;;49.07;21.13;;;;;;;20.73;51.04;103566.75;5105413;28;20309;-56
2023/02/10 10:51:21;;;;;;;48.42;21.10;;;;;;;22.27;50.04;103573.13;5099928;28;20764;-52
2023/02/10 10:53:54;;;;;;;;;;;;;;;22.88;48.44;103565.78;5103614;28;20032;-52
2023/02/10 10:56:39;;;;;;;46.20;20.23;;;;;;;22.81;47.70;103576.72;5099921;28;19927;-54
2023/02/10 10:59:17;;;;;;;54.13;21.70;;;;;;;21.72;48.25;103563.16;5105274;28;20280;-53
2023/02/10 11:01:46;;;;;;;52.03;21.73;;;;;;;22.20;49.12;103559.47;5101331;28;20264;-54
2023/02/10 11:04:18;;;;;;;52.80;21.57;;;;;;;22.24;48.06;103557.19;5102734;28;20353;-54
2023/02/10 11:06:49;;;;;;;56.97;21.07;;;;;;;22.82;46.71;103561.16;5100325;28;20260;-53
2023/02/10 11:09:40;;;;;;;53.97;22.13;;;;;;;24.67;44.44;103566.09;5102742;28;20096;-51
2023/02/10 11:12:16;;;;;;;49.80;21.33;;;;;;;23.93;43.63;103574.84;5100270;28;20036;-53
2023/02/10 11:14:47;;;;;;;53.00;21.63;;;;;;;22.45;45.71;103567.03;5099045;28;20024;-52
2023/02/10 11:17:25;;;;;;;46.27;19.67;;;;;;;21.20;46.65;103558.94;5101742;28;20037;-52
2023/02/10 11:20:15;;;;;;;46.90;20.40;;;;;;;23.41;44.42;103562.09;5101350;28;20036;-51